Time;durP1;ratioP1;P1;durP2;ratioP2;P2;SDS_P1;SDS_P2;PMS_P1;PMS_P2;Temp;Humidity;BMP_temperature;BMP_pressure;BME280_temperature;BME280_humidity;BME280_pressure;Samples;Min_cycle;Max_cycle;Signal;HPM_P1;HPM_P2
2024/02/03 00:03:48;;;;;;;66.35;31.48;;;;;;;6.99;100.00;101190.09;10425867;28;20071;-79
2024/02/03 00:08:52;;;;;;;71.32;32.55;;;;;;;7.09;100.00;101182.47;10444107;28;20535;-81
2024/02/03 00:13:55;;;;;;;84.35;40.65;;;;;;;7.18;100.00;101168.59;10400357;28;21228;-79
2024/02/03 00:19:00;;;;;;;68.38;32.10;;;;;;;7.11;100.00;101164.56;10416962;28;20072;-79
2024/02/03 00:24:03;;;;;;;74.45;35.58;;;;;;;7.45;100.00;101175.09;10435903;28;20087;-79
2024/02/03 00:29:08;;;;;;;65.13;31.58;;;;;;;7.30;100.00;101180.44;10447290;28;20100;-79
2024/02/03 00:34:12;;;;;;;72.35;34.78;;;;;;;7.32;100.00;101194.56;10436636;28;20091;-80
2024/02/03 00:39:16;;;;;;;69.10;35.42;;;;;;;7.11;100.00;101191.28;10417428;28;20056;-81
2024/02/03 00:44:19;;;;;;;65.65;34.33;;;;;;;7.37;100.00;101184.50;10449255;28;20044;-79
2024/02/03 00:49:23;;;;;;;55.97;29.20;;;;;;;7.61;100.00;101187.63;10414758;28;21166;-80
2024/02/03 00:54:27;;;;;;;50.35;27.27;;;;;;;7.62;100.00;101187.53;10414014;28;20415;-79
2024/02/03 00:59:30;;;;;;;59.90;31.20;;;;;;;7.36;100.00;101172.94;10425054;28;20551;-80
2024/02/03 01:04:34;;;;;;;62.42;31.95;;;;;;;7.49;100.00;101175.81;10401573;28;20443;-80
2024/02/03 01:09:37;;;;;;;55.30;27.45;;;;;;;7.62;100.00;101158.09;10459958;28;20053;-80
2024/02/03 01:14:41;;;;;;;53.13;24.73;;;;;;;7.43;100.00;101165.44;10459559;28;20053;-79
2024/02/03 01:19:45;;;;;;;38.63;20.45;;;;;;;7.36;100.00;101158.72;10433804;28;20048;-78
2024/02/03 01:24:49;;;;;;;56.72;29.95;;;;;;;7.30;100.00;101159.94;10436758;28;20044;-80
2024/02/03 01:29:53;;;;;;;55.88;27.95;;;;;;;7.46;100.00;101159.91;10434413;28;20045;-79
2024/02/03 01:34:58;;;;;;;57.00;31.27;;;;;;;7.57;100.00;101167.34;10425228;28;20412;-80
2024/02/03 01:40:01;;;;;;;56.15;30.80;;;;;;;7.64;100.00;101150.00;10443843;28;20232;-79
2024/02/03 01:45:04;;;;;;;51.78;25.63;;;;;;;7.36;100.00;101158.72;10440707;28;20136;-79
2024/02/03 01:50:12;;;;;;;48.90;24.55;;;;;;;7.55;100.00;101183.50;10437292;28;20061;-81
2024/02/03 01:55:15;;;;;;;39.90;18.90;;;;;;;7.57;100.00;101180.72;10446367;28;20057;-80
2024/02/03 02:00:19;;;;;;;49.65;29.42;;;;;;;7.64;100.00;101160.72;10447019;28;20048;-80
2024/02/03 02:05:24;;;;;;;52.33;28.20;;;;;;;7.39;100.00;101172.78;10436916;28;20052;-80
2024/02/03 02:10:27;;;;;;;46.85;23.85;;;;;;;7.61;100.00;101160.88;10429545;28;20052;-78
2024/02/03 02:15:30;;;;;;;48.30;26.70;;;;;;;7.72;100.00;101161.13;10448778;28;21221;-80
2024/02/03 02:20:35;;;;;;;48.47;24.70;;;;;;;7.33;100.00;101157.09;10434612;28;20592;-79
2024/02/03 02:25:38;;;;;;;50.35;28.33;;;;;;;7.32;100.00;101146.47;10423392;28;20637;-79
2024/02/03 02:30:41;;;;;;;59.42;32.28;;;;;;;7.20;100.00;101150.69;10423525;28;20045;-78
2024/02/03 02:35:49;;;;;;;59.53;28.48;;;;;;;7.39;100.00;101143.38;10434259;28;20114;-79
2024/02/03 02:40:53;;;;;;;43.45;20.15;;;;;;;7.21;100.00;101136.38;10451067;28;20049;-80
2024/02/03 02:45:58;;;;;;;61.33;33.65;;;;;;;6.95;100.00;101138.66;10439064;28;20049;-79
2024/02/03 02:51:02;;;;;;;50.92;24.63;;;;;;;7.32;100.00;101133.94;10460463;28;20048;-80
2024/02/03 02:56:06;;;;;;;54.75;26.02;;;;;;;7.24;100.00;101128.16;10459105;28;20040;-81
2024/02/03 03:01:09;;;;;;;52.38;26.90;;;;;;;7.35;100.00;101135.59;10442799;28;20072;-81
2024/02/03 03:06:13;;;;;;;60.90;32.67;;;;;;;7.31;100.00;101142.94;10455453;28;20124;-79
2024/02/03 03:11:16;;;;;;;64.97;31.60;;;;;;;7.39;100.00;101129.16;10436792;28;20055;-81
2024/02/03 03:16:19;;;;;;;49.25;20.50;;;;;;;7.27;100.00;101118.19;10423202;28;20501;-81
2024/02/03 03:21:24;;;;;;;59.50;27.40;;;;;;;7.34;100.00;101132.06;10405028;28;20049;-81
2024/02/03 03:26:27;;;;;;;51.53;25.65;;;;;;;7.20;100.00;101122.16;10432642;28;20069;-81
2024/02/03 03:31:30;;;;;;;42.90;22.88;;;;;;;7.02;100.00;101128.50;10448529;28;20060;-80
2024/02/03 03:36:35;;;;;;;45.78;22.95;;;;;;;7.40;100.00;101114.81;10457224;28;20168;-79
2024/02/03 03:41:39;;;;;;;36.92;16.77;;;;;;;7.11;100.00;101120.00;10453495;28;20048;-78
2024/02/03 03:46:41;;;;;;;36.88;17.85;;;;;;;6.97;100.00;101111.88;10457676;28;21278;-80
2024/02/03 03:51:46;;;;;;;38.42;18.67;;;;;;;6.94;100.00;101118.25;10446008;28;20049;-80
2024/02/03 03:56:49;;;;;;;30.20;15.38;;;;;;;7.01;100.00;101110.75;10456129;28;20052;-80
2024/02/03 04:01:52;;;;;;;35.20;16.02;;;;;;;7.08;100.00;101100.59;10459403;28;20059;-80
2024/02/03 04:06:56;;;;;;;38.53;18.40;;;;;;;6.97;100.00;101109.19;10468505;28;20135;-81
2024/02/03 04:11:59;;;;;;;36.90;19.45;;;;;;;6.91;100.00;101141.56;10445986;28;20063;-81
2024/02/03 04:17:02;;;;;;;30.52;14.00;;;;;;;7.04;100.00;101097.22;10431926;28;20582;-82
2024/02/03 04:22:08;;;;;;;42.63;19.73;;;;;;;6.99;100.00;101109.97;10435480;28;20064;-80
2024/02/03 04:27:10;;;;;;;29.48;14.18;;;;;;;6.93;100.00;101112.97;10432531;28;20049;-81
2024/02/03 04:32:14;;;;;;;42.80;19.60;;;;;;;7.24;100.00;101118.38;10419703;28;20135;-81
2024/02/03 04:37:18;;;;;;;27.05;12.93;;;;;;;7.11;100.00;101108.44;10428472;28;20706;-82
2024/02/03 04:42:21;;;;;;;26.45;12.18;;;;;;;7.06;100.00;101106.00;10450803;28;20048;-80
2024/02/03 04:47:24;;;;;;;29.98;14.48;;;;;;;7.05;100.00;101117.66;10450239;28;20095;-80
2024/02/03 04:52:29;;;;;;;27.45;13.07;;;;;;;6.87;100.00;101099.91;10438968;28;20080;-80
2024/02/03 04:57:32;;;;;;;20.60;10.73;;;;;;;7.05;100.00;101106.97;10421802;28;20131;-81
2024/02/03 05:02:35;;;;;;;22.23;9.77;;;;;;;7.18;100.00;101115.16;10446283;28;20045;-81
2024/02/03 05:07:39;;;;;;;20.55;10.02;;;;;;;7.03;100.00;101096.34;10444514;28;20381;-80
2024/02/03 05:12:42;;;;;;;25.83;12.57;;;;;;;7.09;100.00;101094.31;10424020;28;20040;-81
2024/02/03 05:17:45;;;;;;;20.80;10.73;;;;;;;6.97;100.00;101095.84;10441150;28;20112;-81
2024/02/03 05:22:50;;;;;;;23.60;12.25;;;;;;;7.08;100.00;101109.47;10452003;28;20118;-81
2024/02/03 05:27:53;;;;;;;20.48;9.82;;;;;;;7.11;100.00;101111.97;10431606;28;20432;-80
2024/02/03 05:32:56;;;;;;;23.33;10.88;;;;;;;7.02;100.00;101102.66;10424486;28;20048;-81
2024/02/03 05:38:00;;;;;;;26.15;12.60;;;;;;;7.08;100.00;101104.13;10429867;28;20056;-80
2024/02/03 05:43:03;;;;;;;14.50;7.70;;;;;;;7.13;100.00;101119.88;10409208;28;20056;-79
2024/02/03 05:48:07;;;;;;;21.65;10.57;;;;;;;7.14;100.00;101114.47;10447486;28;20049;-80
2024/02/03 05:53:12;;;;;;;21.50;9.65;;;;;;;7.16;100.00;101115.25;10437654;28;20067;-80
2024/02/03 05:58:15;;;;;;;21.33;11.52;;;;;;;7.19;100.00;101104.41;10403819;28;20091;-79
2024/02/03 06:03:18;;;;;;;12.45;7.20;;;;;;;7.24;100.00;101104.13;10441311;28;20053;-79
2024/02/03 06:08:23;;;;;;;19.75;10.07;;;;;;;7.03;100.00;101096.34;10428995;28;20049;-79
2024/02/03 06:13:26;;;;;;;19.45;9.32;;;;;;;7.03;100.00;101092.84;10447331;28;20052;-79
2024/02/03 06:18:29;;;;;;;21.08;9.57;;;;;;;6.97;100.00;101098.53;10440337;28;20452;-80
2024/02/03 06:23:33;;;;;;;18.95;9.27;;;;;;;7.28;100.00;101077.16;10428200;28;20072;-80
2024/02/03 06:28:36;;;;;;;19.02;9.90;;;;;;;7.33;100.00;101086.72;10432465;28;20051;-78
2024/02/03 06:33:39;;;;;;;16.83;9.13;;;;;;;7.25;100.00;101101.38;10447472;28;20518;-78
2024/02/03 06:38:44;;;;;;;18.85;10.23;;;;;;;7.38;100.00;101092.69;10428114;28;20057;-80
2024/02/03 06:43:47;;;;;;;18.85;10.35;;;;;;;7.03;100.00;101084.81;10431792;28;20644;-80
2024/02/03 06:48:50;;;;;;;17.35;8.43;;;;;;;7.27;100.00;101095.97;10436334;28;20041;-79
2024/02/03 06:53:55;;;;;;;17.00;8.70;;;;;;;7.16;100.00;101107.25;10433088;28;20076;-80
2024/02/03 06:58:58;;;;;;;20.90;9.35;;;;;;;7.31;100.00;101097.50;10440209;28;20048;-80
2024/02/03 07:04:01;;;;;;;18.58;8.60;;;;;;;7.34;100.00;101089.31;10458310;28;20052;-77
2024/02/03 07:09:06;;;;;;;19.45;9.70;;;;;;;7.11;100.00;101090.59;10451406;28;20086;-79
2024/02/03 07:14:09;;;;;;;14.40;7.78;;;;;;;7.40;100.00;101077.41;10452193;28;20660;-80
2024/02/03 07:19:12;;;;;;;12.85;6.40;;;;;;;7.43;100.00;101078.13;10450196;28;20048;-79
2024/02/03 07:24:16;;;;;;;13.27;7.28;;;;;;;7.44;100.00;101082.50;10431668;28;20056;-79
2024/02/03 07:29:19;;;;;;;12.45;6.97;;;;;;;7.54;100.00;101082.81;10408453;28;20052;-80
2024/02/03 07:34:22;;;;;;;14.73;6.60;;;;;;;7.39;100.00;101084.56;10433984;28;20127;-79
2024/02/03 07:39:27;;;;;;;9.93;5.75;;;;;;;7.18;100.00;101078.59;10458633;28;20052;-81
2024/02/03 07:44:31;;;;;;;8.02;4.55;;;;;;;7.24;100.00;101083.63;10431579;28;20049;-79
2024/02/03 07:49:34;;;;;;;14.73;7.70;;;;;;;7.55;100.00;101084.56;10425280;28;20052;-80
2024/02/03 07:54:39;;;;;;;13.27;6.78;;;;;;;7.28;100.00;101086.97;10434529;28;20093;-79
2024/02/03 07:59:42;;;;;;;13.05;6.93;;;;;;;7.48;100.00;101084.03;10453690;28;20053;-81
2024/02/03 08:04:45;;;;;;;17.80;9.60;;;;;;;7.35;100.00;101093.72;10427947;28;20052;-80
2024/02/03 08:09:49;;;;;;;13.95;8.82;;;;;;;7.16;100.00;101091.22;10452116;28;20056;-80
2024/02/03 08:14:53;;;;;;;22.00;12.52;;;;;;;7.33;100.00;101092.94;10449992;28;20535;-79
2024/02/03 08:19:56;;;;;;;14.00;8.68;;;;;;;7.44;100.00;101095.00;10451178;28;20041;-77
2024/02/03 08:25:00;;;;;;;12.65;7.28;;;;;;;7.47;100.00;101089.47;10436591;28;20513;-80
2024/02/03 08:30:03;;;;;;;9.55;5.40;;;;;;;7.44;100.00;101093.19;10444154;28;20059;-81
2024/02/03 08:35:07;;;;;;;8.80;4.82;;;;;;;7.27;100.00;101079.94;10426623;28;21258;-79
2024/02/03 08:40:18;;;;;;;10.82;6.70;;;;;;;7.58;100.00;101080.84;10435269;28;20108;-80
2024/02/03 08:45:21;;;;;;;5.57;3.80;;;;;;;7.28;100.00;101078.97;10435563;28;20052;-80
2024/02/03 08:50:24;;;;;;;5.45;3.20;;;;;;;7.44;100.00;101079.81;10426438;28;20052;-80
2024/02/03 08:55:29;;;;;;;9.35;5.00;;;;;;;7.44;100.00;101095.88;10424454;28;20054;-80
2024/02/03 09:00:32;;;;;;;6.85;4.70;;;;;;;7.66;100.00;101100.84;10421155;28;20109;-79
2024/02/03 09:05:35;;;;;;;7.78;4.50;;;;;;;7.74;100.00;101108.44;10422985;28;20053;-80
2024/02/03 09:10:39;;;;;;;5.85;3.28;;;;;;;7.36;100.00;101107.94;10425410;28;20077;-80
2024/02/03 09:15:42;;;;;;;9.85;6.25;;;;;;;7.50;100.00;101105.34;10438545;28;20047;-79
2024/02/03 09:20:45;;;;;;;8.00;4.90;;;;;;;7.32;100.00;101099.22;10436381;28;20122;-81
2024/02/03 09:25:51;;;;;;;9.68;6.03;;;;;;;7.54;100.00;101112.22;10421495;28;20427;-81
2024/02/03 09:30:54;;;;;;;5.80;3.75;;;;;;;7.32;100.00;101130.44;10423828;28;20147;-81
2024/02/03 09:35:57;;;;;;;6.93;4.78;;;;;;;7.66;100.00;101119.56;10421838;28;20053;-80
2024/02/03 09:41:02;;;;;;;6.57;3.90;;;;;;;7.63;100.00;101133.13;10421762;28;21198;-79
2024/02/03 09:46:06;;;;;;;7.32;4.78;;;;;;;7.77;100.00;101121.63;10423979;28;20040;-79
2024/02/03 09:51:10;;;;;;;7.25;5.03;;;;;;;7.48;100.00;101117.94;10424171;28;20053;-80
2024/02/03 09:56:14;;;;;;;9.07;5.65;;;;;;;7.87;100.00;101120.16;10422895;28;20115;-79
2024/02/03 10:01:17;;;;;;;8.50;5.03;;;;;;;7.61;100.00;101123.44;10420111;28;20419;-80
2024/02/03 10:06:21;;;;;;;9.65;6.03;;;;;;;7.96;100.00;101124.09;10420421;28;20470;-78
2024/02/03 10:11:25;;;;;;;5.55;3.53;;;;;;;7.73;100.00;101133.44;10434848;28;21181;-79
2024/02/03 10:16:28;;;;;;;10.88;7.72;;;;;;;7.99;100.00;101142.66;10421724;28;20053;-78
2024/02/03 10:21:31;;;;;;;13.85;8.45;;;;;;;8.12;100.00;101126.75;10419308;28;21194;-79
2024/02/03 10:26:36;;;;;;;10.05;6.25;;;;;;;7.85;100.00;101123.88;10417047;28;20049;-80
2024/02/03 10:31:47;;;;;;;16.98;11.98;;;;;;;8.53;100.00;101123.41;10420743;28;20052;-79
2024/02/03 10:36:50;;;;;;;19.77;11.73;;;;;;;8.00;100.00;101114.06;10436934;28;20553;-81
2024/02/03 10:41:56;;;;;;;15.30;9.95;;;;;;;8.20;100.00;101131.63;10436855;28;20044;-80
2024/02/03 10:47:02;;;;;;;16.52;9.93;;;;;;;8.09;100.00;101151.88;10430349;28;20049;-81
2024/02/03 10:52:08;;;;;;;20.48;13.00;;;;;;;8.21;100.00;101142.25;10435576;28;20041;-82
2024/02/03 10:57:15;;;;;;;17.35;10.60;;;;;;;8.34;100.00;101139.72;10439375;28;20045;-79
2024/02/03 11:02:19;;;;;;;18.55;11.13;;;;;;;8.37;100.00;101139.53;10435579;28;20101;-81
2024/02/03 11:07:23;;;;;;;15.60;8.82;;;;;;;8.33;100.00;101135.28;10421785;28;20053;-81
2024/02/03 11:12:35;;;;;;;18.23;12.75;;;;;;;9.01;100.00;101143.63;10426736;28;20044;-80
2024/02/03 11:17:41;;;;;;;;;;;;;;;8.74;100.00;101137.31;10408717;28;20048;-82
2024/02/03 11:22:49;;;;;;;16.40;11.70;;;;;;;8.46;100.00;101124.75;10425540;28;20302;-82
2024/02/03 11:27:54;;;;;;;17.45;12.43;;;;;;;8.80;100.00;101121.75;10455154;28;20096;-81
2024/02/03 11:32:58;;;;;;;15.55;11.27;;;;;;;8.66;100.00;101127.06;10445662;28;20424;-82
2024/02/03 11:38:08;;;;;;;14.02;9.18;;;;;;;8.52;100.00;101132.41;10417692;28;20267;-80
2024/02/03 11:43:13;;;;;;;17.25;9.23;;;;;;;8.66;100.00;101128.88;10424455;28;20056;-82
2024/02/03 11:48:16;;;;;;;17.80;12.95;;;;;;;8.48;100.00;101114.81;10434992;28;21034;-81
2024/02/03 11:53:24;;;;;;;15.98;11.05;;;;;;;8.68;100.00;101113.59;10446170;28;20101;-82
2024/02/03 11:58:28;;;;;;;18.20;13.38;;;;;;;8.81;100.00;101103.84;10447109;28;20082;-81
2024/02/03 12:03:31;;;;;;;15.52;10.27;;;;;;;8.76;100.00;101113.97;10433808;28;20055;-81
2024/02/03 12:08:34;;;;;;;18.48;13.27;;;;;;;8.70;100.00;101100.97;10444696;28;20681;-83
2024/02/03 12:13:41;;;;;;;21.60;12.52;;;;;;;8.57;100.00;101115.09;10442855;28;20087;-83
2024/02/03 12:18:44;;;;;;;20.92;14.27;;;;;;;8.35;100.00;101101.28;10412175;28;20127;-82
2024/02/03 12:23:47;;;;;;;24.75;16.42;;;;;;;8.84;100.00;101103.66;10438822;28;20053;-82
2024/02/03 12:28:51;;;;;;;21.25;12.55;;;;;;;8.56;100.00;101102.69;10428824;28;20642;-82
2024/02/03 12:33:55;;;;;;;26.50;16.92;;;;;;;8.57;100.00;101103.53;10429198;28;20072;-82
2024/02/03 12:38:58;;;;;;;18.77;11.82;;;;;;;8.42;100.00;101086.56;10414650;28;20052;-82
2024/02/03 12:44:02;;;;;;;23.40;12.23;;;;;;;8.77;100.00;101071.00;10406491;28;20060;-83
2024/02/03 12:49:05;;;;;;;24.25;13.18;;;;;;;8.75;100.00;101080.09;10408175;28;20053;-81
2024/02/03 12:54:09;;;;;;;25.75;14.40;;;;;;;9.02;100.00;101073.03;10405955;28;20049;-82
2024/02/03 12:59:14;;;;;;;23.45;12.93;;;;;;;8.52;100.00;101071.66;10432804;28;20086;-82
2024/02/03 13:04:17;;;;;;;22.65;13.63;;;;;;;9.01;100.00;101068.59;10430642;28;20044;-82
2024/02/03 13:09:20;;;;;;;23.83;13.18;;;;;;;8.82;100.00;101063.53;10424960;28;20049;-81
2024/02/03 13:14:25;;;;;;;25.33;14.20;;;;;;;8.89;100.00;101066.72;10444467;28;20133;-81
2024/02/03 13:19:31;;;;;;;23.50;14.63;;;;;;;8.81;100.00;101074.38;10435091;28;20052;-81
2024/02/03 13:24:35;;;;;;;25.23;14.95;;;;;;;8.81;100.00;101075.22;10418044;28;20072;-81
2024/02/03 13:29:39;;;;;;;22.85;14.32;;;;;;;9.12;100.00;101075.09;10427932;28;20140;-82
2024/02/03 13:34:42;;;;;;;18.27;12.55;;;;;;;8.97;100.00;101072.47;10433462;28;20055;-82
2024/02/03 13:39:46;;;;;;;25.95;14.85;;;;;;;9.10;100.00;101063.63;10469694;28;20048;-82
2024/02/03 13:44:50;;;;;;;19.15;12.73;;;;;;;8.93;100.00;101057.50;10421415;28;20136;-82
2024/02/03 13:49:53;;;;;;;24.30;11.82;;;;;;;8.92;100.00;101046.91;10433878;28;20118;-83
2024/02/03 13:54:57;;;;;;;18.35;11.55;;;;;;;8.87;100.00;101057.91;10425054;28;20056;-82
2024/02/03 14:00:01;;;;;;;34.08;16.27;;;;;;;9.06;100.00;101046.88;10433389;28;20049;-83
2024/02/03 14:05:07;;;;;;;22.33;12.00;;;;;;;8.91;100.00;101039.81;10437252;28;20423;-80
2024/02/03 14:10:11;;;;;;;24.33;13.75;;;;;;;9.01;100.00;101043.63;10421197;28;20130;-81
2024/02/03 14:15:15;;;;;;;15.02;8.68;;;;;;;8.67;100.00;101036.88;10440024;28;20048;-82
2024/02/03 14:20:18;;;;;;;17.95;12.18;;;;;;;9.32;100.00;101049.69;10414258;28;20048;-81
2024/02/03 14:25:21;;;;;;;18.92;11.23;;;;;;;9.05;100.00;101054.06;10410474;28;20059;-82
2024/02/03 14:30:26;;;;;;;12.55;8.43;;;;;;;8.79;100.00;101046.81;10428582;28;20121;-80
2024/02/03 14:35:29;;;;;;;13.32;9.30;;;;;;;8.97;100.00;101053.69;10429785;28;20048;-81
2024/02/03 14:40:32;;;;;;;12.55;8.70;;;;;;;9.08;100.00;101054.81;10413003;28;20120;-80
2024/02/03 14:45:37;;;;;;;14.25;8.27;;;;;;;8.95;100.00;101044.03;10435874;28;20048;-82
2024/02/03 14:50:40;;;;;;;10.15;7.80;;;;;;;8.95;100.00;101041.34;10416905;28;20056;-83
2024/02/03 14:55:43;;;;;;;12.43;6.97;;;;;;;8.92;100.00;101053.13;10424925;28;20041;-82
2024/02/03 15:00:47;;;;;;;13.18;9.00;;;;;;;8.86;100.00;101048.16;10416822;28;20060;-81
2024/02/03 15:05:50;;;;;;;10.52;7.93;;;;;;;8.76;100.00;101055.03;10435439;28;21171;-81
2024/02/03 15:10:54;;;;;;;11.68;8.82;;;;;;;9.02;100.00;101040.88;10425652;28;20214;-81
2024/02/03 15:15:58;;;;;;;11.18;8.30;;;;;;;8.56;100.00;101048.25;10432597;28;20045;-79
2024/02/03 15:21:01;;;;;;;10.75;8.00;;;;;;;8.98;100.00;101055.41;10417663;28;20076;-80
2024/02/03 15:26:05;;;;;;;11.38;8.27;;;;;;;9.03;100.00;101045.25;10419714;28;20701;-82
2024/02/03 15:31:09;;;;;;;9.95;8.10;;;;;;;8.99;100.00;101041.03;10417030;28;20617;-80
2024/02/03 15:36:12;;;;;;;10.35;7.78;;;;;;;8.66;100.00;101048.53;10415669;28;20052;-77
2024/02/03 15:41:15;;;;;;;14.98;6.65;;;;;;;8.56;100.00;101051.78;10417155;28;20052;-81
2024/02/03 15:46:20;;;;;;;9.38;7.97;;;;;;;8.51;100.00;101069.97;10425883;28;20650;-79
2024/02/03 15:51:39;;;;;;;10.80;6.15;;;;;;;8.48;100.00;101075.50;10443197;28;20048;-79
2024/02/03 15:56:42;;;;;;;10.77;7.13;;;;;;;8.42;100.00;101072.28;10427621;28;20045;-82
2024/02/03 16:01:46;;;;;;;9.43;7.13;;;;;;;8.46;100.00;101074.75;10421755;28;20053;-82
2024/02/03 16:06:50;;;;;;;11.63;7.65;;;;;;;8.62;100.00;101080.00;10425616;28;20045;-82
2024/02/03 16:11:55;;;;;;;10.98;7.85;;;;;;;8.76;100.00;101063.94;10408216;28;20793;-81
2024/02/03 16:16:59;;;;;;;13.23;8.52;;;;;;;8.45;100.00;101056.94;10424339;28;20041;-82
2024/02/03 16:22:03;;;;;;;15.80;9.70;;;;;;;8.47;100.00;101055.03;10412081;28;20045;-81
2024/02/03 16:27:09;;;;;;;9.07;6.40;;;;;;;8.11;100.00;101052.75;10429103;28;20065;-81
2024/02/03 16:32:13;;;;;;;12.80;9.40;;;;;;;8.13;100.00;101062.41;10411014;28;20127;-82
2024/02/03 16:37:17;;;;;;;15.35;9.82;;;;;;;8.30;100.00;101055.19;10422041;28;20048;-81
2024/02/03 16:42:20;;;;;;;15.13;9.70;;;;;;;8.30;100.00;101052.50;10433356;28;20052;-81
2024/02/03 16:47:24;;;;;;;20.23;11.52;;;;;;;7.99;100.00;101049.00;10447940;28;20124;-81
2024/02/03 16:52:27;;;;;;;20.23;12.25;;;;;;;8.17;100.00;101063.06;10439913;28;20037;-82
2024/02/03 16:57:30;;;;;;;15.57;10.48;;;;;;;8.18;100.00;101051.44;10429386;28;20049;-83
2024/02/03 17:02:35;;;;;;;15.00;10.15;;;;;;;8.12;100.00;101062.53;10419821;28;20067;-82
2024/02/03 17:07:39;;;;;;;17.95;11.63;;;;;;;8.41;100.00;101055.38;10425656;28;20052;-82
2024/02/03 17:12:42;;;;;;;19.08;12.38;;;;;;;8.02;100.00;101075.56;10437999;28;20056;-83
2024/02/03 17:17:46;;;;;;;17.80;11.68;;;;;;;8.25;100.00;101060.78;10430712;28;20145;-82
2024/02/03 17:22:49;;;;;;;18.73;11.75;;;;;;;8.40;100.00;101075.09;10430986;28;20049;-80
2024/02/03 17:27:52;;;;;;;23.98;11.13;;;;;;;8.16;100.00;101072.06;10444547;28;20053;-80
2024/02/03 17:32:57;;;;;;;21.83;14.63;;;;;;;8.38;100.00;101071.63;10441891;28;20044;-82
2024/02/03 17:38:00;;;;;;;20.48;13.15;;;;;;;8.29;100.00;101078.41;10435522;28;20041;-83
2024/02/03 17:43:03;;;;;;;20.20;11.25;;;;;;;8.15;100.00;101063.19;10431886;28;20037;-83
2024/02/03 17:48:08;;;;;;;21.95;13.50;;;;;;;8.33;100.00;101068.38;10427718;28;20613;-82
2024/02/03 17:53:11;;;;;;;19.30;11.32;;;;;;;8.12;100.00;101075.91;10463211;28;20045;-82
2024/02/03 17:58:14;;;;;;;16.95;12.00;;;;;;;8.44;100.00;101063.22;10433306;28;20049;-82
2024/02/03 18:03:18;;;;;;;17.25;10.95;;;;;;;8.22;100.00;101066.34;10439915;28;20132;-83
2024/02/03 18:08:22;;;;;;;20.02;13.45;;;;;;;8.17;100.00;101055.94;10416027;28;20044;-82
2024/02/03 18:13:25;;;;;;;23.15;14.07;;;;;;;8.36;100.00;101060.16;10415080;28;20045;-81
2024/02/03 18:18:29;;;;;;;26.02;15.50;;;;;;;8.30;100.00;101053.34;10428170;28;20053;-82
2024/02/03 18:23:33;;;;;;;24.02;15.43;;;;;;;8.11;100.00;101060.78;10399737;28;20054;-82
2024/02/03 18:28:37;;;;;;;25.73;18.92;;;;;;;8.26;100.00;101065.22;10407550;28;20854;-83
2024/02/03 18:33:43;;;;;;;31.90;18.60;;;;;;;7.95;100.00;101061.72;10421067;28;21185;-82
2024/02/03 18:38:46;;;;;;;35.08;22.65;;;;;;;8.33;100.00;101054.97;10442770;28;20041;-82
2024/02/03 18:43:49;;;;;;;32.40;19.70;;;;;;;8.23;100.00;101067.19;10418321;28;20563;-82
2024/02/03 18:48:56;;;;;;;30.42;17.80;;;;;;;8.16;100.00;101062.22;10445713;28;20067;-81
2024/02/03 18:53:59;;;;;;;36.67;21.90;;;;;;;8.05;100.00;101061.16;10440273;28;20041;-80
2024/02/03 18:59:02;;;;;;;37.17;22.70;;;;;;;8.53;100.00;101054.66;10441807;28;20124;-81
2024/02/03 19:04:07;;;;;;;34.92;22.90;;;;;;;8.19;100.00;101053.16;10445117;28;20044;-81
2024/02/03 19:09:10;;;;;;;35.63;21.15;;;;;;;8.47;100.00;101048.81;10422382;28;20051;-81
2024/02/03 19:14:13;;;;;;;32.30;18.55;;;;;;;8.04;100.00;101062.97;10405239;28;20049;-81
2024/02/03 19:19:18;;;;;;;39.10;19.23;;;;;;;8.51;100.00;101053.91;10418871;28;20055;-82
2024/02/03 19:24:21;;;;;;;37.88;20.83;;;;;;;8.53;100.00;101067.19;10427994;28;20049;-80
2024/02/03 19:29:24;;;;;;;33.10;20.35;;;;;;;8.56;100.00;101075.03;10410837;28;21286;-80
2024/02/03 19:34:31;;;;;;;39.13;20.58;;;;;;;8.56;100.00;101091.97;10414952;28;20040;-80
2024/02/03 19:39:34;;;;;;;33.03;18.77;;;;;;;8.25;100.00;101081.34;10419160;28;20044;-83
2024/02/03 19:44:37;;;;;;;24.77;12.93;;;;;;;7.88;100.00;101079.06;10412264;28;20050;-81
2024/02/03 19:49:41;;;;;;;38.85;24.10;;;;;;;8.04;100.00;101089.72;10419845;28;20056;-84
2024/02/03 19:54:44;;;;;;;31.45;19.83;;;;;;;8.00;100.00;101093.53;10409999;28;20053;-80
2024/02/03 19:59:49;;;;;;;25.50;15.88;;;;;;;7.88;100.00;101096.94;10408763;28;20780;-81
2024/02/03 20:04:53;;;;;;;22.80;14.73;;;;;;;7.95;100.00;101072.41;10430838;28;20040;-81
2024/02/03 20:09:56;;;;;;;26.35;15.80;;;;;;;7.94;100.00;101081.38;10427137;28;20122;-80
2024/02/03 20:14:59;;;;;;;23.83;15.10;;;;;;;7.76;100.00;101079.75;10439937;28;20191;-84
2024/02/03 20:20:04;;;;;;;28.83;15.65;;;;;;;7.63;100.00;101071.63;10420700;28;20123;-81
2024/02/03 20:25:08;;;;;;;27.88;13.95;;;;;;;7.46;100.00;101063.69;10430249;28;20060;-81
2024/02/03 20:30:11;;;;;;;22.60;14.20;;;;;;;7.80;100.00;101084.00;10428233;28;20094;-81
2024/02/03 20:35:16;;;;;;;24.20;13.52;;;;;;;7.80;100.00;101084.00;10416444;28;21178;-82
2024/02/03 20:40:19;;;;;;;25.17;13.23;;;;;;;7.94;100.00;101075.16;10417324;28;20053;-80
2024/02/03 20:45:22;;;;;;;20.77;12.68;;;;;;;7.72;100.00;101081.75;10430942;28;20045;-83
2024/02/03 20:50:27;;;;;;;22.83;13.38;;;;;;;7.87;100.00;101097.88;10412321;28;20063;-81
2024/02/03 20:55:30;;;;;;;22.10;13.27;;;;;;;7.67;100.00;101083.84;10412845;28;20531;-80
2024/02/03 21:00:34;;;;;;;22.05;14.35;;;;;;;7.75;100.00;101078.06;10413189;28;20067;-81
2024/02/03 21:05:39;;;;;;;24.48;15.10;;;;;;;7.94;100.00;101077.84;10405615;28;20052;-80
2024/02/03 21:10:43;;;;;;;26.23;15.02;;;;;;;7.93;100.00;101076.13;10406404;28;20056;-82
2024/02/03 21:15:47;;;;;;;29.13;16.33;;;;;;;8.12;100.00;101063.38;10409002;28;20052;-82
2024/02/03 21:20:53;;;;;;;29.30;16.10;;;;;;;8.14;100.00;101061.44;10410842;28;20053;-80
2024/02/03 21:25:56;;;;;;;32.72;18.50;;;;;;;8.18;100.00;101049.63;10416399;28;20413;-80
2024/02/03 21:30:59;;;;;;;31.08;17.60;;;;;;;8.09;100.00;101041.25;10429810;28;20060;-80
2024/02/03 21:36:04;;;;;;;33.80;17.92;;;;;;;7.99;100.00;101040.13;10428283;28;20045;-80
2024/02/03 21:41:07;;;;;;;37.90;19.15;;;;;;;7.85;100.00;101036.44;10426951;28;20048;-82
2024/02/03 21:46:14;;;;;;;39.15;20.67;;;;;;;8.03;100.00;101041.66;10414738;28;20052;-80
2024/02/03 21:51:19;;;;;;;36.03;21.10;;;;;;;7.94;100.00;101016.31;10415235;28;20063;-80
2024/02/03 21:56:22;;;;;;;38.67;20.45;;;;;;;8.52;100.00;101014.59;10416472;28;20063;-82
2024/02/03 22:01:25;;;;;;;36.83;21.15;;;;;;;8.48;100.00;101029.13;10414914;28;20932;-81
2024/02/03 22:06:30;;;;;;;37.45;21.58;;;;;;;8.33;100.00;101028.22;10417923;28;20055;-80
2024/02/03 22:11:34;;;;;;;44.85;22.98;;;;;;;7.65;100.00;101034.97;10437878;28;21176;-82
2024/02/03 22:16:37;;;;;;;39.70;22.20;;;;;;;7.92;100.00;101021.72;10430727;28;20052;-81
2024/02/03 22:21:41;;;;;;;41.10;20.67;;;;;;;7.97;100.00;101025.97;10421899;28;20683;-80
2024/02/03 22:26:46;;;;;;;35.00;18.77;;;;;;;7.59;100.00;101019.25;10433045;28;20059;-82
2024/02/03 22:31:50;;;;;;;30.98;16.00;;;;;;;7.91;100.00;101016.50;10423893;28;20508;-79
2024/02/03 22:36:54;;;;;;;32.17;16.60;;;;;;;7.72;100.00;101014.91;10425233;28;20202;-79
2024/02/03 22:41:58;;;;;;;36.67;17.38;;;;;;;7.57;100.00;101036.31;10435297;28;20045;-80
2024/02/03 22:47:01;;;;;;;36.08;19.65;;;;;;;7.77;100.00;101035.19;10416401;28;20042;-80
2024/02/03 22:52:06;;;;;;;37.45;19.65;;;;;;;7.99;100.00;101011.53;10421283;28;20045;-81